Sainte-Rose, Canada
Current Conditions -  °F | °C
As of 9:49 AM on Friday 28 Nov 2014 (Local Time) from CYUL Reporting Station
Broken Clouds Broken Clouds  
Wind Chill: 15°   Ceiling: 24000
Heat Index: 25°   Visibility: 15mi
Dew Point: 19°   Wind: 9mph
Humidity: 80%   Direction: 280°W
Pressure: 30.11"   Gusts: NA
Location:  45.62°N, 73.78°W
Report Text: CYUL 281449Z 28008KT 15SM FEW017 SCT040 SCT120 BKN240 M04/M07 A3011 RMK SF1SC2AC1CI1 SLP198
Loading
Personal Weather Stations






























Interactive Weather Map New forecast layout! Learn more

10-Day Weather Forecast

Advertisements
Track Severe Weather on mobile